Time;durP1;ratioP1;P1;durP2;ratioP2;P2;SDS_P1;SDS_P2;PMS_P1;PMS_P2;Temp;Humidity;BMP_temperature;BMP_pressure;BME280_temperature;BME280_humidity;BME280_pressure;Samples;Min_cycle;Max_cycle;Signal;HPM_P1;HPM_P2
2023/12/18 00:01:26;;;;;;;703.60;480.83;;;11.40;99.90;;;;;;5148831;27;20081;-49
2023/12/18 00:03:51;;;;;;;200.60;131.15;;;11.40;99.90;;;;;;5149170;27;20030;-50
2023/12/18 00:06:17;;;;;;;329.20;211.02;;;11.40;99.90;;;;;;5148010;27;20086;-48
2023/12/18 00:08:43;;;;;;;508.15;362.92;;;11.40;99.90;;;;;;5148705;27;20108;-49
2023/12/18 00:11:08;;;;;;;87.97;52.03;;;11.40;99.90;;;;;;5148915;27;20091;-50
2023/12/18 00:13:34;;;;;;;936.03;613.45;;;11.30;99.90;;;;;;5147984;27;20018;-51
2023/12/18 00:16:00;;;;;;;438.25;277.02;;;11.40;99.90;;;;;;5149073;27;20037;-51
2023/12/18 00:18:26;;;;;;;259.63;176.77;;;11.40;99.90;;;;;;5147857;27;20042;-51
2023/12/18 00:20:52;;;;;;;553.97;402.42;;;11.40;99.90;;;;;;5148535;27;20027;-51
2023/12/18 00:23:18;;;;;;;139.23;89.47;;;11.40;99.90;;;;;;5147711;27;20079;-51
2023/12/18 00:25:44;;;;;;;419.48;315.92;;;11.40;99.90;;;;;;5148728;27;20091;-52
2023/12/18 00:28:09;;;;;;;419.25;306.95;;;11.50;99.90;;;;;;5148817;27;20269;-50
2023/12/18 00:30:35;;;;;;;276.17;194.02;;;11.50;99.90;;;;;;5147715;27;20038;-48
2023/12/18 00:33:01;;;;;;;355.73;261.05;;;11.50;99.90;;;;;;5148588;27;20035;-51
2023/12/18 00:35:28;;;;;;;100.15;70.53;;;11.50;99.90;;;;;;5147522;27;20031;-51
2023/12/18 00:37:54;;;;;;;150.88;103.00;;;11.40;99.90;;;;;;5147954;27;20319;-49
2023/12/18 00:40:20;;;;;;;231.27;148.43;;;11.40;99.90;;;;;;5148484;27;20207;-51
2023/12/18 00:42:47;;;;;;;69.35;46.35;;;11.50;99.90;;;;;;5147777;27;20273;-51
2023/12/18 00:45:15;;;;;;;123.53;76.18;;;11.40;99.90;;;;;;5148468;27;20027;-52
2023/12/18 00:47:42;;;;;;;388.98;266.77;;;11.50;99.90;;;;;;5147204;27;20196;-50
2023/12/18 00:50:09;;;;;;;183.20;114.35;;;11.40;99.90;;;;;;5148391;27;20026;-51
2023/12/18 00:52:36;;;;;;;237.88;147.95;;;11.40;99.90;;;;;;5148330;27;20041;-52
2023/12/18 00:55:02;;;;;;;270.13;181.48;;;11.50;99.90;;;;;;5148195;27;20047;-49
2023/12/18 00:57:28;;;;;;;185.32;110.22;;;11.50;99.90;;;;;;5148125;27;20037;-52
2023/12/18 00:59:53;;;;;;;68.03;37.78;;;11.40;99.90;;;;;;5148094;27;20058;-50
2023/12/18 01:02:19;;;;;;;166.15;96.95;;;11.40;99.90;;;;;;5148162;27;20019;-49
2023/12/18 01:04:45;;;;;;;103.70;56.40;;;11.50;99.90;;;;;;5147940;27;20046;-49
2023/12/18 01:07:10;;;;;;;200.68;117.50;;;11.50;99.90;;;;;;5147712;27;20063;-49
2023/12/18 01:09:36;;;;;;;64.53;30.58;;;11.50;99.90;;;;;;5148056;27;20169;-50
2023/12/18 01:12:02;;;;;;;61.13;34.10;;;11.50;99.90;;;;;;5146861;27;20034;-52
2023/12/18 01:14:27;;;;;;;47.95;22.75;;;11.50;99.90;;;;;;5147309;27;20042;-49
2023/12/18 01:16:54;;;;;;;83.28;39.42;;;11.50;99.90;;;;;;5147934;27;20168;-48
2023/12/18 01:19:20;;;;;;;63.50;30.58;;;11.50;99.90;;;;;;5147480;27;20098;-49
2023/12/18 01:21:46;;;;;;;82.00;50.00;;;11.50;99.90;;;;;;5147598;27;20038;-49
2023/12/18 01:24:12;;;;;;;142.23;70.53;;;11.50;99.90;;;;;;5147729;27;20027;-49
2023/12/18 01:26:37;;;;;;;188.88;111.30;;;11.50;99.90;;;;;;5147709;27;20055;-48
2023/12/18 01:29:04;;;;;;;71.35;32.30;;;11.50;99.90;;;;;;5147772;27;20095;-50
2023/12/18 01:31:30;;;;;;;42.85;17.48;;;11.50;99.90;;;;;;5129379;27;20064;-51
2023/12/18 01:33:57;;;;;;;133.18;68.57;;;11.50;99.90;;;;;;5147453;27;20027;-52
2023/12/18 01:36:23;;;;;;;219.18;124.40;;;11.60;99.90;;;;;;5147415;27;20043;-50
2023/12/18 01:38:49;;;;;;;80.50;38.83;;;11.60;99.90;;;;;;5146238;27;20084;-51
2023/12/18 01:41:15;;;;;;;85.60;43.40;;;11.60;99.90;;;;;;5147266;27;20311;-51
2023/12/18 01:43:41;;;;;;;88.20;39.03;;;11.50;99.90;;;;;;5147215;27;20042;-51
2023/12/18 01:46:07;;;;;;;42.20;17.33;;;11.50;99.90;;;;;;5146950;27;20087;-52
2023/12/18 01:48:33;;;;;;;47.92;13.23;;;11.50;99.90;;;;;;5145685;27;20019;-51
2023/12/18 01:50:59;;;;;;;112.82;53.03;;;11.50;99.90;;;;;;5146334;27;20031;-51
2023/12/18 01:53:27;;;;;;;122.25;56.47;;;11.50;99.90;;;;;;5146231;27;20277;-51
2023/12/18 01:55:53;;;;;;;72.43;28.65;;;11.50;99.90;;;;;;5146116;27;20042;-49
2023/12/18 01:58:18;;;;;;;59.22;22.40;;;11.60;99.90;;;;;;5147142;27;20118;-50
2023/12/18 02:00:44;;;;;;;44.08;16.30;;;11.60;99.90;;;;;;5147057;27;20292;-49
2023/12/18 02:03:10;;;;;;;237.65;106.55;;;11.60;99.90;;;;;;5146812;27;20046;-49
2023/12/18 02:05:37;;;;;;;369.38;124.85;;;11.60;99.90;;;;;;5147292;27;20183;-49
2023/12/18 02:08:03;;;;;;;85.68;29.15;;;11.50;99.90;;;;;;5146736;27;20208;-49
2023/12/18 02:10:29;;;;;;;327.58;122.90;;;11.50;99.90;;;;;;5145895;27;20042;-49
2023/12/18 02:12:54;;;;;;;196.02;67.88;;;11.50;99.90;;;;;;5128709;27;20090;-50
2023/12/18 02:15:20;;;;;;;54.35;13.23;;;11.50;99.90;;;;;;5146683;27;20050;-51
2023/12/18 02:17:46;;;;;;;74.93;27.02;;;11.50;99.90;;;;;;5146813;27;20064;-51
2023/12/18 02:20:12;;;;;;;183.10;74.80;;;11.50;99.90;;;;;;5146868;27;20186;-51
2023/12/18 02:22:47;;;;;;;38.65;14.65;;;11.50;99.90;;;;;;5146849;27;20176;-47
2023/12/18 02:25:17;;;;;;;123.50;56.00;;;11.50;99.90;;;;;;5146621;28;20094;-50
2023/12/18 02:27:44;;;;;;;109.60;48.78;;;11.60;99.90;;;;;;5145758;28;20073;-50
2023/12/18 02:30:19;;;;;;;82.38;40.13;;;11.60;99.90;;;;;;5146321;28;20034;-51
2023/12/18 02:32:45;;;;;;;101.50;42.28;;;11.50;99.90;;;;;;5146648;28;20027;-51
2023/12/18 02:35:11;;;;;;;99.22;42.22;;;11.50;99.90;;;;;;5145546;28;20023;-52
2023/12/18 02:37:37;;;;;;;54.28;21.40;;;11.50;99.90;;;;;;5146635;28;20115;-51
2023/12/18 02:40:03;;;;;;;43.70;10.18;;;11.50;99.90;;;;;;5145567;28;20054;-51
2023/12/18 02:42:29;;;;;;;49.10;16.90;;;11.50;99.90;;;;;;5146624;28;20030;-49
2023/12/18 02:44:56;;;;;;;39.03;12.27;;;11.50;99.90;;;;;;5146615;28;20023;-51
2023/12/18 02:47:22;;;;;;;39.80;8.05;;;11.50;99.90;;;;;;5128545;28;20308;-48
2023/12/18 02:49:48;;;;;;;34.30;12.98;;;11.60;99.90;;;;;;5145545;28;20034;-52
2023/12/18 02:52:13;;;;;;;43.80;13.82;;;11.60;99.90;;;;;;5146695;27;20027;-51
2023/12/18 02:54:39;;;;;;;27.35;6.30;;;11.60;99.90;;;;;;5145554;28;20031;-52
2023/12/18 02:57:04;;;;;;;67.75;25.13;;;11.60;99.90;;;;;;5146652;28;20270;-52
2023/12/18 02:59:30;;;;;;;48.83;22.73;;;11.60;99.90;;;;;;5146609;27;20049;-51
2023/12/18 03:01:56;;;;;;;61.53;24.17;;;11.50;99.90;;;;;;5132186;27;20023;-50
2023/12/18 03:04:22;;;;;;;49.28;20.38;;;11.60;99.90;;;;;;5149989;27;20181;-49
2023/12/18 03:06:48;;;;;;;53.05;24.27;;;11.60;99.90;;;;;;5150010;27;20027;-51
2023/12/18 03:09:13;;;;;;;75.38;29.00;;;11.50;99.90;;;;;;5149979;27;20054;-52
2023/12/18 03:11:43;;;;;;;54.95;22.27;;;11.60;99.90;;;;;;5149265;27;20034;-52
2023/12/18 03:14:12;;;;;;;45.22;19.95;;;11.60;99.90;;;;;;5149241;27;20022;-51
2023/12/18 03:16:38;;;;;;;38.58;14.00;;;11.60;99.90;;;;;;5150247;27;20053;-49
2023/12/18 03:19:03;;;;;;;44.85;17.35;;;11.60;99.90;;;;;;5150018;27;20019;-49
2023/12/18 03:21:29;;;;;;;45.15;19.75;;;11.60;99.90;;;;;;5150010;27;20296;-49
2023/12/18 03:23:55;;;;;;;36.00;14.82;;;11.60;99.90;;;;;;5150123;27;20172;-51
2023/12/18 03:26:20;;;;;;;39.22;14.35;;;11.60;99.90;;;;;;5150063;27;20034;-49
2023/12/18 03:28:46;;;;;;;46.13;15.68;;;11.60;99.90;;;;;;5149608;27;20026;-52
2023/12/18 03:31:12;;;;;;;51.35;25.40;;;11.60;99.90;;;;;;5148971;27;20033;-52
2023/12/18 03:33:38;;;;;;;38.65;16.92;;;11.60;99.90;;;;;;5148699;27;20060;-48
2023/12/18 03:36:04;;;;;;;44.50;17.95;;;11.60;99.90;;;;;;5149365;27;20038;-49
2023/12/18 03:38:30;;;;;;;19.33;7.60;;;11.60;99.90;;;;;;5149816;27;20043;-49
2023/12/18 03:40:56;;;;;;;44.42;20.17;;;11.70;99.90;;;;;;5148729;27;20086;-47
2023/12/18 03:43:23;;;;;;;50.90;25.60;;;11.70;99.90;;;;;;5149480;27;20019;-47
2023/12/18 03:45:49;;;;;;;31.23;15.27;;;11.70;99.90;;;;;;5148531;27;20035;-47
2023/12/18 03:48:15;;;;;;;38.60;18.00;;;11.70;99.90;;;;;;5149642;27;20022;-47
2023/12/18 03:50:44;;;;;;;33.60;16.55;;;11.70;99.90;;;;;;5149570;27;20030;-47
2023/12/18 03:53:10;;;;;;;44.28;18.98;;;11.60;99.90;;;;;;5149148;27;20041;-47
2023/12/18 03:55:36;;;;;;;40.53;17.30;;;11.60;99.90;;;;;;5149637;27;20023;-46
2023/12/18 03:58:02;;;;;;;38.45;16.85;;;11.70;99.90;;;;;;5149610;27;20177;-47
2023/12/18 04:00:28;;;;;;;40.03;18.10;;;11.70;99.90;;;;;;5148247;27;20250;-49
2023/12/18 04:02:53;;;;;;;65.38;27.85;;;11.70;99.90;;;;;;5148438;27;20026;-53
2023/12/18 04:05:19;;;;;;;36.75;16.05;;;11.70;99.90;;;;;;5148093;27;20023;-53
2023/12/18 04:07:45;;;;;;;31.90;12.10;;;11.70;99.90;;;;;;5148863;27;20042;-50
2023/12/18 04:10:10;;;;;;;24.50;12.80;;;11.70;99.90;;;;;;5149363;27;20042;-52
2023/12/18 04:12:37;;;;;;;39.20;16.38;;;11.70;99.90;;;;;;5148712;27;20177;-49
2023/12/18 04:15:03;;;;;;;31.83;13.45;;;11.70;99.90;;;;;;5149132;27;20076;-52
2023/12/18 04:17:29;;;;;;;36.60;17.30;;;11.70;99.90;;;;;;5148891;27;20330;-49
2023/12/18 04:19:54;;;;;;;23.73;8.05;;;11.70;99.90;;;;;;5148900;27;20031;-48
2023/12/18 04:22:20;;;;;;;35.30;15.65;;;11.70;99.90;;;;;;5148999;27;20058;-47
2023/12/18 04:24:46;;;;;;;43.83;16.73;;;11.70;99.90;;;;;;5149002;27;20080;-48
2023/12/18 04:27:12;;;;;;;29.50;9.93;;;11.70;99.90;;;;;;5147967;27;20284;-48
2023/12/18 04:29:38;;;;;;;43.53;18.73;;;11.70;99.90;;;;;;5148689;27;20304;-48
2023/12/18 04:32:05;;;;;;;25.45;9.98;;;11.70;99.90;;;;;;5147738;27;20027;-48
2023/12/18 04:34:30;;;;;;;36.38;17.02;;;11.70;99.90;;;;;;5147743;27;20066;-49
2023/12/18 04:36:56;;;;;;;27.38;8.63;;;11.70;99.90;;;;;;5148439;27;20300;-48
2023/12/18 04:39:22;;;;;;;28.35;10.38;;;11.70;99.90;;;;;;5148655;27;20030;-48
2023/12/18 04:41:47;;;;;;;50.35;18.42;;;11.70;99.90;;;;;;5147626;27;20090;-48
2023/12/18 04:44:14;;;;;;;34.83;17.63;;;11.70;99.90;;;;;;5148523;27;20038;-47
2023/12/18 04:46:40;;;;;;;16.80;4.78;;;11.70;99.90;;;;;;5148468;27;20015;-48
2023/12/18 04:49:06;;;;;;;19.38;4.28;;;11.70;99.90;;;;;;5148391;27;20015;-48
2023/12/18 04:51:31;;;;;;;21.30;5.50;;;11.70;99.90;;;;;;5147843;27;20065;-48
2023/12/18 04:53:57;;;;;;;26.42;11.27;;;11.70;99.90;;;;;;5148247;27;20318;-47
2023/12/18 04:56:23;;;;;;;20.80;6.38;;;11.70;99.90;;;;;;5147898;27;20186;-48
2023/12/18 04:58:49;;;;;;;18.77;6.57;;;11.70;99.90;;;;;;5148165;27;20055;-48
2023/12/18 05:01:33;;;;;;;16.23;4.60;;;11.70;99.90;;;;;;5148202;27;20042;-48
2023/12/18 05:03:59;;;;;;;21.75;7.10;;;11.70;99.90;;;;;;5148074;27;20045;-54
2023/12/18 05:06:26;;;;;;;31.63;13.90;;;11.70;99.90;;;;;;5148119;27;20023;-49
2023/12/18 05:08:52;;;;;;;21.50;7.80;;;11.70;99.90;;;;;;5147464;27;20058;-48
2023/12/18 05:11:18;;;;;;;24.42;8.00;;;11.70;99.90;;;;;;5148101;27;20193;-48
2023/12/18 05:13:44;;;;;;;13.73;3.67;;;11.70;99.90;;;;;;5146638;27;20083;-48
2023/12/18 05:16:10;;;;;;;14.05;4.47;;;11.70;99.90;;;;;;5147962;27;20281;-49
2023/12/18 05:18:36;;;;;;;26.92;8.75;;;11.80;99.90;;;;;;5147864;27;20364;-49
2023/12/18 05:21:03;;;;;;;18.40;4.97;;;11.80;99.90;;;;;;5147396;27;20099;-50
2023/12/18 05:23:29;;;;;;;19.77;6.80;;;11.80;99.90;;;;;;5146907;27;20349;-49
2023/12/18 05:25:55;;;;;;;22.30;6.05;;;11.80;99.90;;;;;;5147231;27;20027;-50
2023/12/18 05:28:20;;;;;;;29.23;12.45;;;11.80;99.90;;;;;;5147140;27;20197;-48
2023/12/18 05:30:46;;;;;;;27.60;6.40;;;11.80;99.90;;;;;;5147765;27;20027;-52
2023/12/18 05:33:12;;;;;;;14.98;3.30;;;11.80;99.90;;;;;;5147280;27;20096;-51
2023/12/18 05:35:37;;;;;;;16.63;3.45;;;11.80;99.90;;;;;;5146305;27;20030;-50
2023/12/18 05:38:03;;;;;;;21.20;3.15;;;11.80;99.90;;;;;;5147449;27;20027;-52
2023/12/18 05:40:29;;;;;;;24.80;7.30;;;11.80;99.90;;;;;;5147138;27;20070;-51
2023/12/18 05:42:54;;;;;;;21.40;4.18;;;11.80;99.90;;;;;;5147257;27;20023;-49
2023/12/18 05:45:20;;;;;;;12.55;3.03;;;11.80;99.90;;;;;;5146480;27;20023;-51
2023/12/18 05:47:46;;;;;;;18.67;5.55;;;11.80;99.90;;;;;;5147228;27;20048;-51
2023/12/18 05:50:11;;;;;;;25.25;5.43;;;11.80;99.90;;;;;;5147340;27;20084;-51
2023/12/18 05:52:37;;;;;;;25.02;4.97;;;11.80;99.90;;;;;;5147365;27;20052;-51
2023/12/18 05:55:03;;;;;;;22.55;4.65;;;11.80;99.90;;;;;;5146055;27;20035;-51
2023/12/18 05:57:29;;;;;;;26.23;6.45;;;11.80;99.90;;;;;;5146109;27;20188;-51
2023/12/18 05:59:55;;;;;;;19.33;5.25;;;11.80;99.90;;;;;;5146989;27;20023;-52
2023/12/18 06:02:20;;;;;;;25.67;6.13;;;11.80;99.90;;;;;;5146986;27;20038;-52
2023/12/18 06:04:46;;;;;;;25.98;4.90;;;11.70;99.90;;;;;;5128664;28;20034;-51
2023/12/18 06:07:12;;;;;;;28.90;5.10;;;11.70;99.90;;;;;;5145996;27;20103;-51
2023/12/18 06:09:38;;;;;;;23.45;4.15;;;11.70;99.90;;;;;;5146980;27;20046;-51
2023/12/18 06:12:05;;;;;;;22.80;5.20;;;11.70;99.90;;;;;;5147045;27;20042;-51
2023/12/18 06:14:30;;;;;;;23.45;4.93;;;11.70;99.90;;;;;;5146501;27;20296;-51
2023/12/18 06:16:56;;;;;;;26.23;4.25;;;11.70;99.90;;;;;;5111625;27;20115;-51
2023/12/18 06:19:21;;;;;;;20.10;3.80;;;11.70;99.90;;;;;;5145632;27;20289;-52
2023/12/18 06:21:47;;;;;;;26.35;3.85;;;11.70;99.90;;;;;;5146825;28;20304;-51
2023/12/18 06:24:13;;;;;;;17.30;3.83;;;11.70;99.90;;;;;;5145714;28;20037;-52
2023/12/18 06:26:38;;;;;;;10.60;2.75;;;11.80;99.90;;;;;;5146804;28;20320;-51
2023/12/18 06:29:04;;;;;;;20.70;4.25;;;11.70;99.90;;;;;;5146909;28;20294;-51
2023/12/18 06:31:30;;;;;;;19.15;3.65;;;11.70;99.90;;;;;;5146403;28;20055;-51
2023/12/18 06:33:55;;;;;;;13.57;4.03;;;11.70;99.90;;;;;;5145525;28;20038;-50
2023/12/18 06:36:21;;;;;;;25.67;5.32;;;11.70;99.90;;;;;;5150304;27;20273;-51
2023/12/18 06:38:47;;;;;;;18.33;4.28;;;11.70;99.90;;;;;;5150534;27;20031;-49
2023/12/18 06:41:13;;;;;;;15.45;3.95;;;11.70;99.90;;;;;;5150745;27;20094;-48
2023/12/18 06:43:39;;;;;;;19.13;2.63;;;11.70;99.90;;;;;;5150240;27;20019;-48
2023/12/18 06:46:05;;;;;;;17.35;3.17;;;11.70;99.90;;;;;;5150283;27;20027;-48
2023/12/18 06:48:32;;;;;;;17.33;3.95;;;11.70;99.90;;;;;;5150711;27;20019;-48
2023/12/18 06:50:58;;;;;;;20.65;4.10;;;11.70;99.90;;;;;;5150683;27;20207;-48
2023/12/18 06:53:24;;;;;;;16.50;3.63;;;11.70;99.90;;;;;;5150172;27;20054;-48
2023/12/18 06:55:50;;;;;;;17.42;4.13;;;11.70;99.90;;;;;;5149421;27;20027;-48
2023/12/18 06:58:15;;;;;;;20.48;5.03;;;11.70;99.90;;;;;;5150657;27;20034;-49
2023/12/18 07:00:42;;;;;;;18.40;4.65;;;11.70;99.90;;;;;;5150728;27;20047;-47
2023/12/18 07:03:07;;;;;;;9.73;2.85;;;11.70;99.90;;;;;;5149204;27;20065;-48
2023/12/18 07:05:33;;;;;;;16.40;3.42;;;11.70;99.90;;;;;;5150589;27;20027;-49
2023/12/18 07:07:59;;;;;;;20.08;3.70;;;11.70;99.90;;;;;;5150027;27;20047;-49
2023/12/18 07:10:25;;;;;;;16.63;4.20;;;11.70;99.90;;;;;;5150301;27;20083;-48
2023/12/18 07:12:50;;;;;;;20.48;3.75;;;11.70;99.90;;;;;;5150359;27;20023;-48
2023/12/18 07:15:16;;;;;;;18.70;3.83;;;11.70;99.90;;;;;;5150163;27;20196;-50
2023/12/18 07:17:42;;;;;;;17.42;3.50;;;11.70;99.90;;;;;;5149863;27;20059;-51
2023/12/18 07:20:08;;;;;;;28.08;5.63;;;11.70;99.90;;;;;;5150006;27;20031;-51
2023/12/18 07:22:34;;;;;;;24.02;3.80;;;11.70;99.90;;;;;;5150140;27;20019;-51
2023/12/18 07:25:00;;;;;;;24.75;4.63;;;11.70;99.90;;;;;;5149938;27;20035;-51
2023/12/18 07:27:26;;;;;;;14.63;3.60;;;11.70;99.90;;;;;;5148861;27;20042;-51
2023/12/18 07:29:52;;;;;;;26.15;4.22;;;11.70;99.90;;;;;;5149832;27;20180;-51
2023/12/18 07:32:17;;;;;;;20.02;3.70;;;11.80;99.90;;;;;;5149984;27;20170;-50
2023/12/18 07:34:43;;;;;;;19.88;3.00;;;11.70;99.90;;;;;;5149704;27;20065;-49
2023/12/18 07:37:09;;;;;;;18.80;3.45;;;11.80;99.90;;;;;;5149595;27;20019;-51
2023/12/18 07:39:35;;;;;;;18.65;3.42;;;11.80;99.90;;;;;;5149547;27;20211;-51
2023/12/18 07:42:01;;;;;;;15.60;3.20;;;11.80;99.90;;;;;;5149731;27;20027;-51
2023/12/18 07:44:27;;;;;;;27.40;3.83;;;11.80;99.90;;;;;;5149678;27;20169;-49
2023/12/18 07:46:52;;;;;;;25.80;4.18;;;11.70;99.90;;;;;;5147402;27;20042;-48
2023/12/18 07:49:18;;;;;;;15.32;4.45;;;11.80;99.90;;;;;;5149212;27;20023;-50
2023/12/18 07:51:44;;;;;;;26.40;4.07;;;11.70;99.90;;;;;;5149297;27;20086;-49
2023/12/18 07:54:10;;;;;;;33.70;5.22;;;11.80;99.90;;;;;;5149497;27;20098;-48
2023/12/18 07:56:35;;;;;;;24.33;3.97;;;11.70;99.90;;;;;;5149158;27;20109;-48
2023/12/18 07:59:01;;;;;;;17.52;4.13;;;11.70;99.90;;;;;;5149072;27;20027;-48
2023/12/18 08:01:26;;;;;;;22.92;3.75;;;11.70;99.90;;;;;;5149175;27;20249;-48
2023/12/18 08:03:52;;;;;;;21.35;4.38;;;11.70;99.90;;;;;;5148150;27;20023;-49
2023/12/18 08:06:18;;;;;;;31.85;5.00;;;11.70;99.90;;;;;;5149146;27;20056;-48
2023/12/18 08:08:44;;;;;;;18.95;4.13;;;11.80;99.90;;;;;;5148860;27;20047;-51
2023/12/18 08:11:10;;;;;;;30.52;3.72;;;11.80;99.90;;;;;;5148348;27;20062;-50
2023/12/18 08:13:38;;;;;;;22.27;2.90;;;11.80;99.90;;;;;;5148880;27;20022;-51
2023/12/18 08:16:07;;;;;;;18.00;2.63;;;11.80;99.90;;;;;;5149062;27;20227;-51
2023/12/18 08:18:33;;;;;;;27.30;4.25;;;11.70;99.90;;;;;;5148824;27;20027;-51
2023/12/18 08:20:59;;;;;;;35.17;4.00;;;11.80;99.90;;;;;;5148923;27;20035;-51
2023/12/18 08:23:24;;;;;;;25.35;3.90;;;11.70;99.90;;;;;;5148549;27;20037;-51
2023/12/18 08:25:50;;;;;;;19.30;3.97;;;11.80;99.90;;;;;;5148685;27;20027;-51
2023/12/18 08:28:15;;;;;;;23.77;3.28;;;11.80;99.90;;;;;;5148642;27;20165;-50
2023/12/18 08:30:43;;;;;;;23.95;4.30;;;11.80;99.90;;;;;;5148413;27;20143;-50
2023/12/18 08:33:08;;;;;;;30.42;4.88;;;11.80;99.90;;;;;;5148236;27;20257;-51
2023/12/18 08:35:34;;;;;;;15.48;2.75;;;11.80;99.90;;;;;;5148603;27;20019;-51
2023/12/18 08:38:00;;;;;;;19.20;3.58;;;11.80;99.90;;;;;;5146946;27;20055;-50
2023/12/18 08:40:25;;;;;;;15.27;3.55;;;11.80;99.90;;;;;;5148364;27;20176;-50
2023/12/18 08:42:52;;;;;;;26.55;3.20;;;11.80;99.90;;;;;;5147949;27;20076;-51
2023/12/18 08:45:17;;;;;;;18.13;3.00;;;11.90;99.90;;;;;;5146552;27;20045;-50
2023/12/18 08:47:43;;;;;;;21.70;3.80;;;11.80;99.90;;;;;;5147960;27;20030;-52
2023/12/18 08:50:09;;;;;;;19.00;2.88;;;11.90;99.90;;;;;;5148384;27;20034;-49
2023/12/18 08:52:35;;;;;;;31.30;3.67;;;11.90;99.90;;;;;;5147717;27;20042;-48
2023/12/18 08:55:01;;;;;;;17.98;2.95;;;11.80;99.90;;;;;;5147915;27;20023;-48
2023/12/18 08:57:28;;;;;;;18.10;2.70;;;11.80;99.90;;;;;;5147620;27;20023;-50
2023/12/18 08:59:55;;;;;;;18.38;3.72;;;11.80;99.90;;;;;;5146582;27;20027;-51
2023/12/18 09:02:20;;;;;;;19.83;3.10;;;11.80;99.90;;;;;;5147758;27;20079;-50
2023/12/18 09:04:46;;;;;;;20.05;4.28;;;11.80;99.90;;;;;;5146628;27;20348;-47
2023/12/18 09:07:12;;;;;;;16.20;3.45;;;11.80;99.90;;;;;;5147649;27;20078;-48
2023/12/18 09:09:39;;;;;;;18.02;3.88;;;11.80;99.90;;;;;;5146691;27;20300;-50
2023/12/18 09:12:06;;;;;;;18.75;4.03;;;11.80;99.90;;;;;;5147837;27;20196;-48
2023/12/18 09:14:32;;;;;;;22.90;3.47;;;11.80;99.90;;;;;;5147746;27;20028;-51
2023/12/18 09:16:58;;;;;;;20.10;3.60;;;11.90;99.90;;;;;;5147326;27;20069;-51
2023/12/18 09:19:24;;;;;;;19.30;3.92;;;11.90;99.90;;;;;;5147208;27;20027;-49
2023/12/18 09:21:50;;;;;;;25.13;3.83;;;11.90;99.90;;;;;;5147444;27;20031;-48
2023/12/18 09:24:15;;;;;;;15.63;3.25;;;11.90;99.90;;;;;;5147079;27;20211;-51
2023/12/18 09:26:41;;;;;;;10.57;2.80;;;11.90;99.90;;;;;;5146491;27;20054;-49
2023/12/18 09:29:06;;;;;;;17.63;3.90;;;11.90;99.90;;;;;;5146321;27;20027;-50
2023/12/18 09:31:32;;;;;;;14.13;2.45;;;11.90;99.90;;;;;;5147266;27;20023;-50
2023/12/18 09:33:58;;;;;;;28.13;3.83;;;11.90;99.90;;;;;;5147223;27;20019;-51
2023/12/18 09:36:24;;;;;;;28.23;4.10;;;11.90;99.90;;;;;;5146882;27;20087;-51
2023/12/18 09:38:49;;;;;;;22.10;3.50;;;11.90;99.90;;;;;;5145912;27;20030;-52
2023/12/18 09:41:24;;;;;;;14.57;3.00;;;11.90;99.90;;;;;;5145862;27;20099;-51
2023/12/18 09:43:53;;;;;;;15.40;3.22;;;11.90;99.90;;;;;;5147029;27;20058;-50
2023/12/18 09:46:22;;;;;;;17.90;3.20;;;11.90;99.90;;;;;;5147102;27;20218;-51
2023/12/18 09:48:49;;;;;;;18.42;4.13;;;11.90;99.90;;;;;;5146252;27;20026;-51
2023/12/18 09:51:16;;;;;;;12.38;2.75;;;12.00;99.90;;;;;;5146904;27;20027;-50
2023/12/18 09:53:42;;;;;;;13.98;2.58;;;11.90;99.90;;;;;;5146790;27;20020;-49
2023/12/18 09:56:08;;;;;;;24.88;5.07;;;11.90;99.90;;;;;;5145813;27;20037;-51
2023/12/18 09:58:34;;;;;;;13.75;3.25;;;12.00;99.90;;;;;;5128897;27;20035;-51
2023/12/18 10:00:59;;;;;;;14.50;2.92;;;11.90;99.90;;;;;;5145777;27;20046;-50
2023/12/18 10:03:25;;;;;;;14.18;3.90;;;11.90;99.90;;;;;;5146651;27;20030;-46
2023/12/18 10:05:51;;;;;;;13.10;2.50;;;11.90;99.90;;;;;;5146660;27;20038;-46
2023/12/18 10:08:16;;;;;;;14.63;2.60;;;11.90;99.90;;;;;;5128333;28;20112;-49
2023/12/18 10:10:45;;;;;;;16.35;3.17;;;12.00;99.90;;;;;;5146317;27;20038;-49
2023/12/18 10:13:11;;;;;;;13.45;3.33;;;12.00;99.90;;;;;;5146423;27;20035;-48
2023/12/18 10:15:39;;;;;;;12.23;3.17;;;11.90;99.90;;;;;;5146630;27;20027;-49
2023/12/18 10:18:05;;;;;;;11.63;1.70;;;11.90;99.90;;;;;;5146787;27;20049;-47
2023/12/18 10:20:33;;;;;;;14.57;2.17;;;11.90;99.90;;;;;;5145477;27;20027;-50
2023/12/18 10:23:02;;;;;;;8.95;1.40;;;11.90;99.90;;;;;;5128515;28;20277;-50
2023/12/18 10:25:27;;;;;;;12.03;3.77;;;11.90;99.90;;;;;;5146089;28;20019;-49
2023/12/18 10:27:56;;;;;;;5.30;1.90;;;11.90;99.90;;;;;;5146065;28;20056;-49
2023/12/18 10:30:25;;;;;;;10.23;2.80;;;11.90;99.90;;;;;;5146537;28;20042;-51
2023/12/18 10:32:54;;;;;;;8.93;2.25;;;11.90;99.90;;;;;;5146166;28;20027;-47
2023/12/18 10:35:21;;;;;;;4.55;1.67;;;11.90;99.90;;;;;;5146522;28;20071;-50
2023/12/18 10:37:56;;;;;;;5.70;1.90;;;11.90;99.90;;;;;;5146534;28;20023;-52
2023/12/18 10:40:26;;;;;;;6.15;1.85;;;11.90;99.90;;;;;;5145294;28;20326;-50
2023/12/18 10:43:13;;;;;;;5.10;1.90;;;11.90;99.90;;;;;;5146106;28;20019;-52
2023/12/18 10:45:39;;;;;;;9.25;2.33;;;11.90;99.90;;;;;;5146274;28;20077;-52
2023/12/18 10:48:05;;;;;;;4.82;1.60;;;11.90;99.90;;;;;;5144966;28;20019;-52
2023/12/18 10:50:31;;;;;;;3.63;1.27;;;11.90;99.90;;;;;;5145051;28;20174;-47
2023/12/18 10:52:58;;;;;;;6.95;1.80;;;11.90;99.90;;;;;;5145252;28;20147;-47
2023/12/18 10:55:24;;;;;;;6.25;1.50;;;11.90;99.90;;;;;;5146000;27;20050;-50
2023/12/18 10:57:50;;;;;;;5.15;1.88;;;11.90;99.90;;;;;;5145193;28;20034;-50
2023/12/18 11:00:15;;;;;;;6.57;1.80;;;11.90;99.90;;;;;;5144835;28;20065;-49
2023/12/18 11:02:41;;;;;;;9.23;2.30;;;11.90;99.90;;;;;;5145277;28;20019;-51
2023/12/18 11:05:07;;;;;;;15.48;2.95;;;11.90;99.90;;;;;;5145320;28;20035;-49
2023/12/18 11:07:33;;;;;;;12.70;2.05;;;11.90;99.90;;;;;;5127463;28;20055;-51
2023/12/18 11:09:58;;;;;;;18.27;2.30;;;12.00;99.90;;;;;;5127856;28;20023;-50
2023/12/18 11:12:24;;;;;;;14.05;2.80;;;12.00;99.90;;;;;;5146244;28;20027;-51
2023/12/18 11:15:05;;;;;;;14.88;2.90;;;11.90;99.90;;;;;;5146102;28;20050;-51
2023/12/18 11:17:48;;;;;;;14.82;3.30;;;12.00;99.90;;;;;;5145940;28;20276;-51
2023/12/18 11:20:30;;;;;;;11.18;2.92;;;12.00;99.90;;;;;;5144641;28;20327;-50
2023/12/18 11:22:56;;;;;;;16.02;6.25;;;12.00;99.90;;;;;;5130190;27;20047;-50
2023/12/18 11:25:27;;;;;;;16.80;4.30;;;11.90;99.90;;;;;;5149600;27;20023;-50
2023/12/18 11:27:53;;;;;;;22.90;9.60;;;12.00;99.90;;;;;;5148688;27;20164;-48
2023/12/18 11:30:27;;;;;;;12.00;3.70;;;12.00;99.90;;;;;;5149235;27;20051;-49
2023/12/18 11:32:53;;;;;;;28.50;9.85;;;11.90;99.90;;;;;;5149519;27;20065;-50
2023/12/18 11:35:28;;;;;;;13.70;3.67;;;12.00;99.90;;;;;;5149461;27;20027;-50
2023/12/18 11:38:08;;;;;;;14.32;4.30;;;12.00;99.90;;;;;;5148268;27;20027;-50
2023/12/18 11:40:48;;;;;;;35.60;11.95;;;12.00;99.90;;;;;;5148197;27;20299;-50
2023/12/18 11:43:33;;;;;;;16.55;5.35;;;12.00;99.90;;;;;;5148360;27;20038;-46
2023/12/18 11:45:59;;;;;;;15.73;4.60;;;12.00;99.90;;;;;;5148399;27;20091;-48
2023/12/18 11:48:25;;;;;;;22.20;7.32;;;12.00;99.90;;;;;;5147259;27;20039;-53
2023/12/18 11:50:51;;;;;;;18.50;4.03;;;12.00;99.90;;;;;;5148579;27;20098;-52
2023/12/18 11:53:22;;;;;;;17.58;4.47;;;12.00;99.90;;;;;;5147934;27;20016;-51
2023/12/18 11:55:50;;;;;;;18.27;2.95;;;12.00;99.90;;;;;;5149099;27;20217;-52
2023/12/18 11:58:20;;;;;;;15.38;3.00;;;12.00;99.90;;;;;;5149224;27;20148;-52
2023/12/18 12:00:45;;;;;;;18.97;4.03;;;12.00;99.90;;;;;;5130951;27;20247;-52
2023/12/18 12:03:12;;;;;;;17.42;3.67;;;12.10;99.90;;;;;;5147578;27;20271;-50
2023/12/18 12:05:38;;;;;;;12.90;2.72;;;12.10;99.90;;;;;;5147664;27;20173;-50
2023/12/18 12:08:04;;;;;;;15.02;3.38;;;12.10;99.90;;;;;;5130403;27;20096;-52
2023/12/18 12:10:30;;;;;;;21.30;6.05;;;12.10;99.90;;;;;;5148682;27;20039;-52
2023/12/18 12:12:56;;;;;;;12.00;3.03;;;12.10;99.90;;;;;;5148241;27;20035;-52
2023/12/18 12:15:23;;;;;;;11.75;3.38;;;12.20;99.90;;;;;;5147504;27;20056;-52
2023/12/18 12:18:00;;;;;;;27.02;11.85;;;12.20;99.90;;;;;;5148641;27;20039;-52
2023/12/18 12:20:26;;;;;;;15.60;3.60;;;12.20;99.90;;;;;;5148575;27;20076;-52
2023/12/18 12:22:52;;;;;;;16.73;4.25;;;12.20;99.90;;;;;;5148484;27;20056;-52
2023/12/18 12:25:17;;;;;;;12.05;4.05;;;12.20;99.90;;;;;;5148738;27;20023;-50
2023/12/18 12:27:43;;;;;;;17.98;3.28;;;12.20;99.90;;;;;;5147420;27;20019;-52